sensor_id;sensor_type;location;lat;lon;timestamp;P1;durP1;ratioP1;P2;durP2;ratioP2
54191;SDS011;40101;53.002;6.488;2022-07-18T00:01:06;7.47;;;4.13;;
54191;SDS011;40101;53.002;6.488;2022-07-18T00:03:31;5.30;;;3.97;;
54191;SDS011;40101;53.002;6.488;2022-07-18T00:05:57;5.22;;;4.20;;
54191;SDS011;40101;53.002;6.488;2022-07-18T00:08:23;5.50;;;4.40;;
54191;SDS011;40101;53.002;6.488;2022-07-18T00:10:48;6.03;;;4.28;;
54191;SDS011;40101;53.002;6.488;2022-07-18T00:13:14;5.97;;;4.28;;
54191;SDS011;40101;53.002;6.488;2022-07-18T00:15:40;5.28;;;4.28;;
54191;SDS011;40101;53.002;6.488;2022-07-18T00:18:06;4.45;;;3.65;;
54191;SDS011;40101;53.002;6.488;2022-07-18T00:20:31;5.15;;;3.80;;
54191;SDS011;40101;53.002;6.488;2022-07-18T00:22:57;5.15;;;4.05;;
54191;SDS011;40101;53.002;6.488;2022-07-18T00:25:23;5.32;;;3.65;;
54191;SDS011;40101;53.002;6.488;2022-07-18T00:27:48;6.13;;;4.10;;
54191;SDS011;40101;53.002;6.488;2022-07-18T00:30:14;6.03;;;3.60;;
54191;SDS011;40101;53.002;6.488;2022-07-18T00:32:40;5.13;;;4.32;;
54191;SDS011;40101;53.002;6.488;2022-07-18T00:35:06;5.03;;;3.83;;
54191;SDS011;40101;53.002;6.488;2022-07-18T00:37:32;4.82;;;3.67;;
54191;SDS011;40101;53.002;6.488;2022-07-18T00:39:58;6.05;;;3.95;;
54191;SDS011;40101;53.002;6.488;2022-07-18T00:42:24;4.53;;;3.55;;
54191;SDS011;40101;53.002;6.488;2022-07-18T00:44:53;5.05;;;3.45;;
54191;SDS011;40101;53.002;6.488;2022-07-18T00:47:20;5.63;;;3.92;;
54191;SDS011;40101;53.002;6.488;2022-07-18T00:49:46;4.97;;;3.75;;
54191;SDS011;40101;53.002;6.488;2022-07-18T00:52:12;7.90;;;3.92;;
54191;SDS011;40101;53.002;6.488;2022-07-18T00:54:38;4.55;;;4.05;;
54191;SDS011;40101;53.002;6.488;2022-07-18T00:57:04;9.65;;;4.13;;
54191;SDS011;40101;53.002;6.488;2022-07-18T00:59:30;5.45;;;4.13;;
54191;SDS011;40101;53.002;6.488;2022-07-18T01:02:14;5.63;;;4.05;;
54191;SDS011;40101;53.002;6.488;2022-07-18T01:04:40;8.10;;;4.40;;
54191;SDS011;40101;53.002;6.488;2022-07-18T01:07:06;7.38;;;4.15;;
54191;SDS011;40101;53.002;6.488;2022-07-18T01:09:32;6.65;;;4.72;;
54191;SDS011;40101;53.002;6.488;2022-07-18T01:11:57;5.00;;;4.20;;
54191;SDS011;40101;53.002;6.488;2022-07-18T01:14:23;8.90;;;5.38;;
54191;SDS011;40101;53.002;6.488;2022-07-18T01:16:50;8.13;;;5.88;;
54191;SDS011;40101;53.002;6.488;2022-07-18T01:19:16;9.65;;;5.18;;
54191;SDS011;40101;53.002;6.488;2022-07-18T01:21:41;7.60;;;5.15;;
54191;SDS011;40101;53.002;6.488;2022-07-18T01:24:07;8.07;;;4.90;;
54191;SDS011;40101;53.002;6.488;2022-07-18T01:26:33;8.45;;;4.95;;
54191;SDS011;40101;53.002;6.488;2022-07-18T01:28:59;7.57;;;4.45;;
54191;SDS011;40101;53.002;6.488;2022-07-18T01:31:25;8.52;;;5.53;;
54191;SDS011;40101;53.002;6.488;2022-07-18T01:33:53;7.40;;;5.38;;
54191;SDS011;40101;53.002;6.488;2022-07-18T01:36:19;8.15;;;4.93;;
54191;SDS011;40101;53.002;6.488;2022-07-18T01:38:45;7.70;;;4.18;;
54191;SDS011;40101;53.002;6.488;2022-07-18T01:41:10;5.53;;;4.15;;
54191;SDS011;40101;53.002;6.488;2022-07-18T01:43:39;8.65;;;5.03;;
54191;SDS011;40101;53.002;6.488;2022-07-18T01:46:07;7.82;;;4.93;;
54191;SDS011;40101;53.002;6.488;2022-07-18T01:48:36;7.75;;;5.60;;
54191;SDS011;40101;53.002;6.488;2022-07-18T01:51:02;11.02;;;5.65;;
54191;SDS011;40101;53.002;6.488;2022-07-18T01:53:28;6.68;;;5.25;;
54191;SDS011;40101;53.002;6.488;2022-07-18T01:55:54;7.63;;;4.50;;
54191;SDS011;40101;53.002;6.488;2022-07-18T01:58:19;8.00;;;4.90;;
54191;SDS011;40101;53.002;6.488;2022-07-18T02:00:45;7.97;;;4.63;;
54191;SDS011;40101;53.002;6.488;2022-07-18T02:03:11;6.07;;;4.85;;
54191;SDS011;40101;53.002;6.488;2022-07-18T02:05:36;7.40;;;4.60;;
54191;SDS011;40101;53.002;6.488;2022-07-18T02:08:02;7.25;;;4.72;;
54191;SDS011;40101;53.002;6.488;2022-07-18T02:10:28;7.97;;;4.20;;
54191;SDS011;40101;53.002;6.488;2022-07-18T02:12:54;5.60;;;4.22;;
54191;SDS011;40101;53.002;6.488;2022-07-18T02:15:20;9.77;;;5.25;;
54191;SDS011;40101;53.002;6.488;2022-07-18T02:17:46;6.25;;;4.97;;
54191;SDS011;40101;53.002;6.488;2022-07-18T02:20:12;8.05;;;4.95;;
54191;SDS011;40101;53.002;6.488;2022-07-18T02:22:38;9.90;;;4.88;;
54191;SDS011;40101;53.002;6.488;2022-07-18T02:25:04;7.93;;;4.90;;
54191;SDS011;40101;53.002;6.488;2022-07-18T02:27:31;7.15;;;5.07;;
54191;SDS011;40101;53.002;6.488;2022-07-18T02:29:56;7.47;;;5.28;;
54191;SDS011;40101;53.002;6.488;2022-07-18T02:32:22;11.68;;;5.68;;
54191;SDS011;40101;53.002;6.488;2022-07-18T02:34:48;8.50;;;4.90;;
54191;SDS011;40101;53.002;6.488;2022-07-18T02:37:14;9.73;;;5.95;;
54191;SDS011;40101;53.002;6.488;2022-07-18T02:39:40;6.85;;;5.50;;
54191;SDS011;40101;53.002;6.488;2022-07-18T02:42:05;11.07;;;5.50;;
54191;SDS011;40101;53.002;6.488;2022-07-18T02:44:31;11.00;;;6.63;;
54191;SDS011;40101;53.002;6.488;2022-07-18T02:46:57;8.68;;;6.10;;
54191;SDS011;40101;53.002;6.488;2022-07-18T02:49:23;11.20;;;5.50;;
54191;SDS011;40101;53.002;6.488;2022-07-18T02:51:59;7.55;;;5.60;;
54191;SDS011;40101;53.002;6.488;2022-07-18T02:54:27;10.10;;;5.43;;
54191;SDS011;40101;53.002;6.488;2022-07-18T02:56:53;8.98;;;5.72;;
54191;SDS011;40101;53.002;6.488;2022-07-18T02:59:19;9.63;;;5.80;;
54191;SDS011;40101;53.002;6.488;2022-07-18T03:01:44;9.38;;;5.93;;
54191;SDS011;40101;53.002;6.488;2022-07-18T03:04:11;10.40;;;6.63;;
54191;SDS011;40101;53.002;6.488;2022-07-18T03:06:36;10.73;;;6.15;;
54191;SDS011;40101;53.002;6.488;2022-07-18T03:09:02;8.07;;;5.15;;
54191;SDS011;40101;53.002;6.488;2022-07-18T03:11:29;10.27;;;5.22;;
54191;SDS011;40101;53.002;6.488;2022-07-18T03:13:54;8.23;;;5.05;;
54191;SDS011;40101;53.002;6.488;2022-07-18T03:16:20;8.50;;;5.43;;
54191;SDS011;40101;53.002;6.488;2022-07-18T03:18:46;9.93;;;6.72;;
54191;SDS011;40101;53.002;6.488;2022-07-18T03:21:11;7.32;;;5.10;;
54191;SDS011;40101;53.002;6.488;2022-07-18T03:23:37;9.10;;;5.32;;
54191;SDS011;40101;53.002;6.488;2022-07-18T03:26:03;11.30;;;5.55;;
54191;SDS011;40101;53.002;6.488;2022-07-18T03:28:28;7.47;;;5.30;;
54191;SDS011;40101;53.002;6.488;2022-07-18T03:30:54;7.13;;;5.35;;
54191;SDS011;40101;53.002;6.488;2022-07-18T03:33:19;9.05;;;5.90;;
54191;SDS011;40101;53.002;6.488;2022-07-18T03:35:45;10.15;;;6.28;;
54191;SDS011;40101;53.002;6.488;2022-07-18T03:38:11;8.40;;;6.18;;
54191;SDS011;40101;53.002;6.488;2022-07-18T03:40:36;8.05;;;5.18;;
54191;SDS011;40101;53.002;6.488;2022-07-18T03:43:02;9.95;;;5.40;;
54191;SDS011;40101;53.002;6.488;2022-07-18T03:45:27;11.25;;;5.68;;
54191;SDS011;40101;53.002;6.488;2022-07-18T03:47:53;5.85;;;4.93;;
54191;SDS011;40101;53.002;6.488;2022-07-18T03:50:20;7.60;;;5.28;;
54191;SDS011;40101;53.002;6.488;2022-07-18T03:52:46;7.57;;;5.95;;
54191;SDS011;40101;53.002;6.488;2022-07-18T03:55:11;8.77;;;5.00;;
54191;SDS011;40101;53.002;6.488;2022-07-18T03:57:38;7.32;;;5.10;;
54191;SDS011;40101;53.002;6.488;2022-07-18T04:00:05;9.82;;;6.03;;
54191;SDS011;40101;53.002;6.488;2022-07-18T04:02:37;7.15;;;5.32;;
54191;SDS011;40101;53.002;6.488;2022-07-18T04:05:06;6.20;;;4.82;;
54191;SDS011;40101;53.002;6.488;2022-07-18T04:07:33;9.40;;;5.43;;
54191;SDS011;40101;53.002;6.488;2022-07-18T04:09:59;10.23;;;5.70;;
54191;SDS011;40101;53.002;6.488;2022-07-18T04:12:24;9.00;;;5.60;;
54191;SDS011;40101;53.002;6.488;2022-07-18T04:14:50;12.82;;;6.28;;
54191;SDS011;40101;53.002;6.488;2022-07-18T04:17:16;9.75;;;6.05;;
54191;SDS011;40101;53.002;6.488;2022-07-18T04:19:41;9.90;;;5.95;;
54191;SDS011;40101;53.002;6.488;2022-07-18T04:22:07;11.30;;;5.70;;
54191;SDS011;40101;53.002;6.488;2022-07-18T04:24:33;8.93;;;5.95;;
54191;SDS011;40101;53.002;6.488;2022-07-18T04:26:58;6.95;;;5.70;;
54191;SDS011;40101;53.002;6.488;2022-07-18T04:29:24;9.23;;;5.28;;
54191;SDS011;40101;53.002;6.488;2022-07-18T04:31:50;9.57;;;5.35;;
54191;SDS011;40101;53.002;6.488;2022-07-18T04:34:15;9.20;;;5.78;;
54191;SDS011;40101;53.002;6.488;2022-07-18T04:36:41;13.00;;;5.22;;
54191;SDS011;40101;53.002;6.488;2022-07-18T04:39:07;10.70;;;5.50;;
54191;SDS011;40101;53.002;6.488;2022-07-18T04:41:32;6.30;;;4.70;;
54191;SDS011;40101;53.002;6.488;2022-07-18T04:43:58;11.55;;;5.50;;
54191;SDS011;40101;53.002;6.488;2022-07-18T04:46:24;7.95;;;5.10;;
54191;SDS011;40101;53.002;6.488;2022-07-18T04:48:49;7.50;;;5.50;;
54191;SDS011;40101;53.002;6.488;2022-07-18T04:51:15;10.73;;;5.30;;
54191;SDS011;40101;53.002;6.488;2022-07-18T04:53:40;6.95;;;4.88;;
54191;SDS011;40101;53.002;6.488;2022-07-18T04:56:06;7.40;;;4.13;;
54191;SDS011;40101;53.002;6.488;2022-07-18T04:58:32;7.78;;;4.95;;
54191;SDS011;40101;53.002;6.488;2022-07-18T05:00:57;5.82;;;4.60;;
54191;SDS011;40101;53.002;6.488;2022-07-18T05:03:23;7.95;;;4.68;;
54191;SDS011;40101;53.002;6.488;2022-07-18T05:05:49;10.07;;;4.60;;
54191;SDS011;40101;53.002;6.488;2022-07-18T05:08:15;11.63;;;4.38;;
54191;SDS011;40101;53.002;6.488;2022-07-18T05:10:40;7.53;;;4.55;;
54191;SDS011;40101;53.002;6.488;2022-07-18T05:13:06;7.63;;;4.07;;
54191;SDS011;40101;53.002;6.488;2022-07-18T05:15:31;7.25;;;4.13;;
54191;SDS011;40101;53.002;6.488;2022-07-18T05:17:57;8.88;;;4.60;;
54191;SDS011;40101;53.002;6.488;2022-07-18T05:20:23;10.77;;;4.05;;
54191;SDS011;40101;53.002;6.488;2022-07-18T05:22:50;8.25;;;4.55;;
54191;SDS011;40101;53.002;6.488;2022-07-18T05:25:16;8.55;;;3.60;;
54191;SDS011;40101;53.002;6.488;2022-07-18T05:27:42;6.22;;;3.42;;
54191;SDS011;40101;53.002;6.488;2022-07-18T05:30:09;9.82;;;4.00;;
54191;SDS011;40101;53.002;6.488;2022-07-18T05:32:38;8.18;;;3.88;;
54191;SDS011;40101;53.002;6.488;2022-07-18T05:35:04;5.93;;;3.17;;
54191;SDS011;40101;53.002;6.488;2022-07-18T05:37:31;7.78;;;3.65;;
54191;SDS011;40101;53.002;6.488;2022-07-18T05:39:57;9.65;;;3.95;;
54191;SDS011;40101;53.002;6.488;2022-07-18T05:42:22;7.57;;;3.72;;
54191;SDS011;40101;53.002;6.488;2022-07-18T05:44:48;5.68;;;3.65;;
54191;SDS011;40101;53.002;6.488;2022-07-18T05:47:14;8.60;;;3.55;;
54191;SDS011;40101;53.002;6.488;2022-07-18T05:49:39;6.13;;;3.63;;
54191;SDS011;40101;53.002;6.488;2022-07-18T05:52:06;7.55;;;3.03;;
54191;SDS011;40101;53.002;6.488;2022-07-18T05:54:32;6.00;;;3.22;;
54191;SDS011;40101;53.002;6.488;2022-07-18T05:56:57;4.25;;;2.95;;
54191;SDS011;40101;53.002;6.488;2022-07-18T05:59:23;3.83;;;2.63;;
54191;SDS011;40101;53.002;6.488;2022-07-18T06:01:49;4.32;;;2.95;;
54191;SDS011;40101;53.002;6.488;2022-07-18T06:04:14;5.47;;;2.90;;
54191;SDS011;40101;53.002;6.488;2022-07-18T06:06:41;6.85;;;3.00;;
54191;SDS011;40101;53.002;6.488;2022-07-18T06:09:07;5.20;;;2.95;;
54191;SDS011;40101;53.002;6.488;2022-07-18T06:11:33;6.35;;;2.83;;
54191;SDS011;40101;53.002;6.488;2022-07-18T06:13:59;5.72;;;2.80;;
54191;SDS011;40101;53.002;6.488;2022-07-18T06:16:28;3.97;;;2.58;;
54191;SDS011;40101;53.002;6.488;2022-07-18T06:18:55;7.32;;;2.85;;
54191;SDS011;40101;53.002;6.488;2022-07-18T06:21:21;7.03;;;3.22;;
54191;SDS011;40101;53.002;6.488;2022-07-18T06:23:47;5.80;;;3.30;;
54191;SDS011;40101;53.002;6.488;2022-07-18T06:26:12;5.45;;;2.70;;
54191;SDS011;40101;53.002;6.488;2022-07-18T06:28:38;6.35;;;3.00;;
54191;SDS011;40101;53.002;6.488;2022-07-18T06:31:03;5.75;;;3.10;;
54191;SDS011;40101;53.002;6.488;2022-07-18T06:33:29;6.35;;;3.75;;
54191;SDS011;40101;53.002;6.488;2022-07-18T06:35:56;7.00;;;3.08;;
54191;SDS011;40101;53.002;6.488;2022-07-18T06:38:22;4.18;;;3.45;;
54191;SDS011;40101;53.002;6.488;2022-07-18T06:40:48;6.78;;;3.00;;
54191;SDS011;40101;53.002;6.488;2022-07-18T06:43:13;4.55;;;3.42;;
54191;SDS011;40101;53.002;6.488;2022-07-18T06:45:44;6.82;;;3.42;;
54191;SDS011;40101;53.002;6.488;2022-07-18T06:48:11;6.65;;;2.97;;
54191;SDS011;40101;53.002;6.488;2022-07-18T06:50:37;6.22;;;2.65;;
54191;SDS011;40101;53.002;6.488;2022-07-18T06:53:03;4.25;;;2.67;;
54191;SDS011;40101;53.002;6.488;2022-07-18T06:55:29;6.63;;;2.55;;
54191;SDS011;40101;53.002;6.488;2022-07-18T06:57:54;7.65;;;3.28;;
54191;SDS011;40101;53.002;6.488;2022-07-18T07:00:20;5.40;;;3.28;;
54191;SDS011;40101;53.002;6.488;2022-07-18T07:02:47;4.70;;;3.00;;
54191;SDS011;40101;53.002;6.488;2022-07-18T07:05:15;8.93;;;3.00;;
54191;SDS011;40101;53.002;6.488;2022-07-18T07:07:42;3.03;;;2.22;;
54191;SDS011;40101;53.002;6.488;2022-07-18T07:10:09;6.30;;;2.88;;
54191;SDS011;40101;53.002;6.488;2022-07-18T07:12:42;5.75;;;2.90;;
54191;SDS011;40101;53.002;6.488;2022-07-18T07:15:12;4.28;;;2.65;;
54191;SDS011;40101;53.002;6.488;2022-07-18T07:17:39;9.27;;;2.70;;
54191;SDS011;40101;53.002;6.488;2022-07-18T07:20:05;5.22;;;2.25;;
54191;SDS011;40101;53.002;6.488;2022-07-18T07:22:32;3.40;;;2.22;;
54191;SDS011;40101;53.002;6.488;2022-07-18T07:25:05;4.28;;;2.00;;
54191;SDS011;40101;53.002;6.488;2022-07-18T07:27:31;5.57;;;2.22;;
54191;SDS011;40101;53.002;6.488;2022-07-18T07:29:57;4.15;;;2.13;;
54191;SDS011;40101;53.002;6.488;2022-07-18T07:32:22;4.35;;;1.98;;
54191;SDS011;40101;53.002;6.488;2022-07-18T07:34:48;3.63;;;2.00;;
54191;SDS011;40101;53.002;6.488;2022-07-18T07:37:14;3.53;;;1.98;;
54191;SDS011;40101;53.002;6.488;2022-07-18T07:39:39;3.30;;;1.65;;
54191;SDS011;40101;53.002;6.488;2022-07-18T07:42:05;5.38;;;2.03;;
54191;SDS011;40101;53.002;6.488;2022-07-18T07:44:31;4.65;;;2.10;;
54191;SDS011;40101;53.002;6.488;2022-07-18T07:46:57;5.72;;;1.83;;
54191;SDS011;40101;53.002;6.488;2022-07-18T07:49:25;4.22;;;2.08;;
54191;SDS011;40101;53.002;6.488;2022-07-18T07:51:51;3.88;;;1.80;;
54191;SDS011;40101;53.002;6.488;2022-07-18T07:54:16;4.40;;;1.60;;
54191;SDS011;40101;53.002;6.488;2022-07-18T07:56:42;3.83;;;1.70;;
54191;SDS011;40101;53.002;6.488;2022-07-18T07:59:07;2.70;;;1.50;;
54191;SDS011;40101;53.002;6.488;2022-07-18T08:01:33;4.25;;;1.70;;
54191;SDS011;40101;53.002;6.488;2022-07-18T08:03:59;3.08;;;1.42;;
54191;SDS011;40101;53.002;6.488;2022-07-18T08:06:24;4.40;;;1.98;;
54191;SDS011;40101;53.002;6.488;2022-07-18T08:08:51;3.53;;;1.40;;
54191;SDS011;40101;53.002;6.488;2022-07-18T08:11:17;4.45;;;1.42;;
54191;SDS011;40101;53.002;6.488;2022-07-18T08:13:43;4.00;;;1.65;;
54191;SDS011;40101;53.002;6.488;2022-07-18T08:16:09;4.00;;;1.52;;
54191;SDS011;40101;53.002;6.488;2022-07-18T08:18:34;2.80;;;1.13;;
54191;SDS011;40101;53.002;6.488;2022-07-18T08:21:00;2.65;;;1.23;;
54191;SDS011;40101;53.002;6.488;2022-07-18T08:23:25;3.80;;;1.17;;
54191;SDS011;40101;53.002;6.488;2022-07-18T08:25:51;7.13;;;1.40;;
54191;SDS011;40101;53.002;6.488;2022-07-18T08:28:17;2.63;;;0.90;;
54191;SDS011;40101;53.002;6.488;2022-07-18T08:30:43;4.13;;;1.42;;
54191;SDS011;40101;53.002;6.488;2022-07-18T08:33:09;4.68;;;1.55;;
54191;SDS011;40101;53.002;6.488;2022-07-18T08:35:34;2.35;;;1.27;;
54191;SDS011;40101;53.002;6.488;2022-07-18T08:38:01;5.47;;;1.30;;
54191;SDS011;40101;53.002;6.488;2022-07-18T08:40:28;2.30;;;1.10;;
54191;SDS011;40101;53.002;6.488;2022-07-18T08:42:54;5.35;;;1.13;;
54191;SDS011;40101;53.002;6.488;2022-07-18T08:45:21;4.90;;;1.20;;
54191;SDS011;40101;53.002;6.488;2022-07-18T08:47:48;2.20;;;0.90;;
54191;SDS011;40101;53.002;6.488;2022-07-18T08:50:15;2.40;;;0.90;;
54191;SDS011;40101;53.002;6.488;2022-07-18T08:52:41;5.15;;;2.05;;
54191;SDS011;40101;53.002;6.488;2022-07-18T08:55:07;8.10;;;1.05;;
54191;SDS011;40101;53.002;6.488;2022-07-18T08:57:33;3.22;;;1.23;;
54191;SDS011;40101;53.002;6.488;2022-07-18T08:59:59;2.78;;;1.45;;
54191;SDS011;40101;53.002;6.488;2022-07-18T09:02:26;2.75;;;1.65;;
54191;SDS011;40101;53.002;6.488;2022-07-18T09:04:52;2.08;;;1.15;;
54191;SDS011;40101;53.002;6.488;2022-07-18T09:07:22;2.83;;;1.05;;
54191;SDS011;40101;53.002;6.488;2022-07-18T09:09:58;3.80;;;1.48;;
54191;SDS011;40101;53.002;6.488;2022-07-18T09:12:25;2.88;;;1.15;;
54191;SDS011;40101;53.002;6.488;2022-07-18T09:14:52;4.35;;;1.10;;
54191;SDS011;40101;53.002;6.488;2022-07-18T09:17:19;4.18;;;1.20;;
54191;SDS011;40101;53.002;6.488;2022-07-18T09:19:56;3.63;;;0.80;;
54191;SDS011;40101;53.002;6.488;2022-07-18T09:22:23;9.02;;;1.25;;
54191;SDS011;40101;53.002;6.488;2022-07-18T09:27:29;3.65;;;1.10;;
54191;SDS011;40101;53.002;6.488;2022-07-18T09:33:27;2.85;;;0.95;;
54191;SDS011;40101;53.002;6.488;2022-07-18T09:35:28;2.58;;;1.10;;
54191;SDS011;40101;53.002;6.488;2022-07-18T09:37:56;4.15;;;1.10;;
54191;SDS011;40101;53.002;6.488;2022-07-18T09:40:25;3.75;;;1.45;;
54191;SDS011;40101;53.002;6.488;2022-07-18T09:42:54;2.85;;;1.10;;
54191;SDS011;40101;53.002;6.488;2022-07-18T09:45:29;2.80;;;1.00;;
54191;SDS011;40101;53.002;6.488;2022-07-18T09:47:59;4.22;;;1.05;;
54191;SDS011;40101;53.002;6.488;2022-07-18T09:50:39;4.80;;;1.42;;
54191;SDS011;40101;53.002;6.488;2022-07-18T09:53:19;3.83;;;1.30;;
54191;SDS011;40101;53.002;6.488;2022-07-18T09:55:49;2.38;;;1.20;;
54191;SDS011;40101;53.002;6.488;2022-07-18T09:58:18;3.65;;;1.08;;
54191;SDS011;40101;53.002;6.488;2022-07-18T10:00:46;3.67;;;1.58;;
54191;SDS011;40101;53.002;6.488;2022-07-18T10:03:13;6.30;;;1.38;;
54191;SDS011;40101;53.002;6.488;2022-07-18T10:05:39;3.33;;;1.17;;
54191;SDS011;40101;53.002;6.488;2022-07-18T10:08:08;2.67;;;1.35;;
54191;SDS011;40101;53.002;6.488;2022-07-18T10:10:35;3.22;;;1.40;;
54191;SDS011;40101;53.002;6.488;2022-07-18T10:13:02;5.22;;;2.15;;
54191;SDS011;40101;53.002;6.488;2022-07-18T10:15:30;5.22;;;1.58;;
54191;SDS011;40101;53.002;6.488;2022-07-18T10:17:57;4.50;;;1.40;;
54191;SDS011;40101;53.002;6.488;2022-07-18T10:20:34;3.92;;;1.58;;
54191;SDS011;40101;53.002;6.488;2022-07-18T10:23:08;5.00;;;1.27;;
54191;SDS011;40101;53.002;6.488;2022-07-18T10:30:55;5.40;;;1.65;;
54191;SDS011;40101;53.002;6.488;2022-07-18T10:33:39;3.72;;;1.33;;
54191;SDS011;40101;53.002;6.488;2022-07-18T10:36:07;2.75;;;1.70;;
54191;SDS011;40101;53.002;6.488;2022-07-18T10:38:35;3.60;;;1.40;;
54191;SDS011;40101;53.002;6.488;2022-07-18T10:41:09;3.58;;;1.23;;
54191;SDS011;40101;53.002;6.488;2022-07-18T10:43:37;4.90;;;1.98;;
54191;SDS011;40101;53.002;6.488;2022-07-18T10:46:05;4.30;;;1.77;;
54191;SDS011;40101;53.002;6.488;2022-07-18T10:51:13;4.50;;;1.92;;
54191;SDS011;40101;53.002;6.488;2022-07-18T10:53:56;3.33;;;1.67;;
54191;SDS011;40101;53.002;6.488;2022-07-18T10:59:15;3.88;;;1.75;;
54191;SDS011;40101;53.002;6.488;2022-07-18T11:01:48;5.53;;;1.98;;
54191;SDS011;40101;53.002;6.488;2022-07-18T11:04:30;3.80;;;1.48;;
54191;SDS011;40101;53.002;6.488;2022-07-18T11:07:03;4.70;;;2.17;;
54191;SDS011;40101;53.002;6.488;2022-07-18T11:09:43;4.82;;;1.55;;
54191;SDS011;40101;53.002;6.488;2022-07-18T11:12:30;3.45;;;1.40;;
54191;SDS011;40101;53.002;6.488;2022-07-18T11:15:12;5.22;;;1.55;;
54191;SDS011;40101;53.002;6.488;2022-07-18T11:20:38;4.43;;;1.60;;
54191;SDS011;40101;53.002;6.488;2022-07-18T11:23:21;3.47;;;1.63;;
54191;SDS011;40101;53.002;6.488;2022-07-18T11:25:55;3.00;;;1.45;;
54191;SDS011;40101;53.002;6.488;2022-07-18T11:28:23;4.45;;;1.85;;
54191;SDS011;40101;53.002;6.488;2022-07-18T11:31:06;6.30;;;2.03;;
54191;SDS011;40101;53.002;6.488;2022-07-18T11:33:34;6.05;;;2.05;;
54191;SDS011;40101;53.002;6.488;2022-07-18T11:36:03;4.63;;;1.95;;
54191;SDS011;40101;53.002;6.488;2022-07-18T11:38:28;6.47;;;2.30;;
54191;SDS011;40101;53.002;6.488;2022-07-18T11:40:54;4.20;;;2.08;;
54191;SDS011;40101;53.002;6.488;2022-07-18T11:43:20;3.80;;;1.98;;
54191;SDS011;40101;53.002;6.488;2022-07-18T11:45:47;4.18;;;2.17;;
54191;SDS011;40101;53.002;6.488;2022-07-18T11:48:20;2.85;;;1.98;;
54191;SDS011;40101;53.002;6.488;2022-07-18T11:50:47;3.55;;;2.15;;
54191;SDS011;40101;53.002;6.488;2022-07-18T11:53:13;4.00;;;2.03;;
54191;SDS011;40101;53.002;6.488;2022-07-18T11:55:40;5.93;;;2.72;;
54191;SDS011;40101;53.002;6.488;2022-07-18T11:58:06;4.97;;;1.92;;
54191;SDS011;40101;53.002;6.488;2022-07-18T12:00:36;3.65;;;1.88;;
54191;SDS011;40101;53.002;6.488;2022-07-18T12:03:13;4.43;;;2.72;;
54191;SDS011;40101;53.002;6.488;2022-07-18T12:05:44;3.95;;;2.00;;
54191;SDS011;40101;53.002;6.488;2022-07-18T12:11:07;4.53;;;1.95;;
54191;SDS011;40101;53.002;6.488;2022-07-18T12:26:49;3.83;;;2.00;;
54191;SDS011;40101;53.002;6.488;2022-07-18T12:32:21;4.03;;;2.28;;
54191;SDS011;40101;53.002;6.488;2022-07-18T12:35:03;3.17;;;1.85;;
54191;SDS011;40101;53.002;6.488;2022-07-18T12:37:30;4.43;;;2.70;;
54191;SDS011;40101;53.002;6.488;2022-07-18T12:39:57;4.03;;;2.28;;
54191;SDS011;40101;53.002;6.488;2022-07-18T12:42:28;4.68;;;1.92;;
54191;SDS011;40101;53.002;6.488;2022-07-18T12:44:59;8.55;;;2.47;;
54191;SDS011;40101;53.002;6.488;2022-07-18T12:47:25;4.57;;;2.58;;
54191;SDS011;40101;53.002;6.488;2022-07-18T12:49:51;6.15;;;2.83;;
54191;SDS011;40101;53.002;6.488;2022-07-18T12:52:18;4.35;;;2.35;;
54191;SDS011;40101;53.002;6.488;2022-07-18T12:54:44;3.95;;;2.17;;
54191;SDS011;40101;53.002;6.488;2022-07-18T12:57:11;5.65;;;2.50;;
54191;SDS011;40101;53.002;6.488;2022-07-18T12:59:36;2.90;;;2.08;;
54191;SDS011;40101;53.002;6.488;2022-07-18T13:02:02;4.13;;;2.38;;
54191;SDS011;40101;53.002;6.488;2022-07-18T13:04:28;2.50;;;2.05;;
54191;SDS011;40101;53.002;6.488;2022-07-18T13:06:54;4.00;;;2.03;;
54191;SDS011;40101;53.002;6.488;2022-07-18T13:09:20;3.17;;;2.22;;
54191;SDS011;40101;53.002;6.488;2022-07-18T13:11:47;2.60;;;1.83;;
54191;SDS011;40101;53.002;6.488;2022-07-18T13:14:13;4.03;;;2.50;;
54191;SDS011;40101;53.002;6.488;2022-07-18T13:16:43;4.72;;;2.63;;
54191;SDS011;40101;53.002;6.488;2022-07-18T13:19:12;7.20;;;2.15;;
54191;SDS011;40101;53.002;6.488;2022-07-18T13:21:39;5.88;;;2.30;;
54191;SDS011;40101;53.002;6.488;2022-07-18T13:24:09;5.43;;;2.33;;
54191;SDS011;40101;53.002;6.488;2022-07-18T13:26:35;2.70;;;2.13;;
54191;SDS011;40101;53.002;6.488;2022-07-18T13:29:01;4.07;;;2.50;;
54191;SDS011;40101;53.002;6.488;2022-07-18T13:31:27;6.15;;;2.40;;
54191;SDS011;40101;53.002;6.488;2022-07-18T13:33:53;3.05;;;2.17;;
54191;SDS011;40101;53.002;6.488;2022-07-18T13:36:19;6.93;;;2.50;;
54191;SDS011;40101;53.002;6.488;2022-07-18T13:38:44;3.80;;;2.40;;
54191;SDS011;40101;53.002;6.488;2022-07-18T13:41:11;3.72;;;2.67;;
54191;SDS011;40101;53.002;6.488;2022-07-18T13:43:37;2.65;;;2.10;;
54191;SDS011;40101;53.002;6.488;2022-07-18T13:46:05;5.53;;;2.15;;
54191;SDS011;40101;53.002;6.488;2022-07-18T13:48:31;4.28;;;2.70;;
54191;SDS011;40101;53.002;6.488;2022-07-18T13:50:57;3.55;;;2.33;;
54191;SDS011;40101;53.002;6.488;2022-07-18T13:53:23;3.53;;;2.20;;
54191;SDS011;40101;53.002;6.488;2022-07-18T13:55:49;3.83;;;2.40;;
54191;SDS011;40101;53.002;6.488;2022-07-18T13:58:15;5.10;;;2.50;;
54191;SDS011;40101;53.002;6.488;2022-07-18T14:00:40;4.20;;;2.30;;
54191;SDS011;40101;53.002;6.488;2022-07-18T14:03:06;2.85;;;2.28;;
54191;SDS011;40101;53.002;6.488;2022-07-18T14:05:33;5.65;;;2.78;;
54191;SDS011;40101;53.002;6.488;2022-07-18T14:07:58;8.13;;;2.60;;
54191;SDS011;40101;53.002;6.488;2022-07-18T14:10:24;6.25;;;2.72;;
54191;SDS011;40101;53.002;6.488;2022-07-18T14:12:50;4.88;;;2.50;;
54191;SDS011;40101;53.002;6.488;2022-07-18T14:15:16;3.95;;;2.20;;
54191;SDS011;40101;53.002;6.488;2022-07-18T14:17:41;4.22;;;2.88;;
54191;SDS011;40101;53.002;6.488;2022-07-18T14:20:08;4.55;;;2.30;;
54191;SDS011;40101;53.002;6.488;2022-07-18T14:22:35;4.70;;;2.22;;
54191;SDS011;40101;53.002;6.488;2022-07-18T14:25:02;4.78;;;2.30;;
54191;SDS011;40101;53.002;6.488;2022-07-18T14:27:29;5.38;;;2.42;;
54191;SDS011;40101;53.002;6.488;2022-07-18T14:29:54;3.63;;;2.17;;
54191;SDS011;40101;53.002;6.488;2022-07-18T14:32:20;4.07;;;2.50;;
54191;SDS011;40101;53.002;6.488;2022-07-18T14:34:46;3.30;;;2.17;;
54191;SDS011;40101;53.002;6.488;2022-07-18T14:37:12;2.83;;;1.98;;
54191;SDS011;40101;53.002;6.488;2022-07-18T14:39:37;3.28;;;1.70;;
54191;SDS011;40101;53.002;6.488;2022-07-18T14:42:03;3.42;;;2.00;;
54191;SDS011;40101;53.002;6.488;2022-07-18T14:44:28;4.60;;;2.13;;
54191;SDS011;40101;53.002;6.488;2022-07-18T14:46:54;4.10;;;2.05;;
54191;SDS011;40101;53.002;6.488;2022-07-18T14:49:20;5.00;;;2.13;;
54191;SDS011;40101;53.002;6.488;2022-07-18T14:51:46;4.43;;;2.05;;
54191;SDS011;40101;53.002;6.488;2022-07-18T14:54:11;4.55;;;2.00;;
54191;SDS011;40101;53.002;6.488;2022-07-18T14:56:37;4.35;;;2.17;;
54191;SDS011;40101;53.002;6.488;2022-07-18T14:59:03;5.72;;;2.10;;
54191;SDS011;40101;53.002;6.488;2022-07-18T15:01:28;3.72;;;1.83;;
54191;SDS011;40101;53.002;6.488;2022-07-18T15:03:56;2.20;;;1.77;;
54191;SDS011;40101;53.002;6.488;2022-07-18T15:06:22;3.00;;;1.70;;
54191;SDS011;40101;53.002;6.488;2022-07-18T15:08:48;2.20;;;1.75;;
54191;SDS011;40101;53.002;6.488;2022-07-18T15:11:14;2.42;;;1.63;;
54191;SDS011;40101;53.002;6.488;2022-07-18T15:13:43;3.70;;;1.95;;
54191;SDS011;40101;53.002;6.488;2022-07-18T15:16:12;4.35;;;1.73;;
54191;SDS011;40101;53.002;6.488;2022-07-18T15:18:38;1.95;;;1.65;;
54191;SDS011;40101;53.002;6.488;2022-07-18T15:21:03;2.40;;;1.35;;
54191;SDS011;40101;53.002;6.488;2022-07-18T15:23:29;2.53;;;1.70;;
54191;SDS011;40101;53.002;6.488;2022-07-18T15:25:55;2.25;;;1.45;;